Time;durP1;ratioP1;P1;durP2;ratioP2;P2;SDS_P1;SDS_P2;PMS_P1;PMS_P2;Temp;Humidity;BMP_temperature;BMP_pressure;BME280_temperature;BME280_humidity;BME280_pressure;Samples;Min_cycle;Max_cycle;Signal;HPM_P1;HPM_P2
2023/08/23 00:00:08;;;;;;;19.85;7.88;;;;;;;16.46;100.00;101727.78;5083471;28;20016;-81
2023/08/23 00:02:33;;;;;;;15.90;7.55;;;;;;;16.55;100.00;101724.22;5083640;28;20095;-82
2023/08/23 00:04:59;;;;;;;9.52;6.90;;;;;;;16.54;100.00;101722.44;5083434;28;20032;-81
2023/08/23 00:07:25;;;;;;;12.25;7.45;;;;;;;16.37;100.00;101717.59;5069588;28;20483;-82
2023/08/23 00:09:50;;;;;;;17.27;7.22;;;;;;;16.39;100.00;101730.25;5083163;28;20024;-81
2023/08/23 00:12:16;;;;;;;14.05;7.20;;;;;;;16.30;100.00;101720.03;5084706;28;20028;-82
2023/08/23 00:14:42;;;;;;;14.75;7.13;;;;;;;16.08;100.00;101719.16;5086132;28;20386;-82
2023/08/23 00:17:07;;;;;;;10.75;6.85;;;;;;;16.02;100.00;101721.59;5084700;28;20069;-81
2023/08/23 00:19:33;;;;;;;16.67;7.47;;;;;;;16.05;100.00;101716.66;5084318;28;20050;-82
2023/08/23 00:21:58;;;;;;;14.43;6.82;;;;;;;15.68;100.00;101716.25;5073207;28;20085;-84
2023/08/23 00:24:24;;;;;;;13.75;7.13;;;;;;;15.66;100.00;101704.44;5081962;28;20119;-82
2023/08/23 00:26:49;;;;;;;8.95;6.68;;;;;;;15.81;100.00;101708.69;5082477;28;20024;-80
2023/08/23 00:29:15;;;;;;;10.05;6.55;;;;;;;15.90;100.00;101704.22;5082006;28;20036;-81
2023/08/23 00:31:40;;;;;;;9.75;6.82;;;;;;;15.94;100.00;101714.88;5087301;28;20035;-82
2023/08/23 00:34:05;;;;;;;16.52;7.30;;;;;;;16.01;100.00;101703.28;5077035;28;20043;-82
2023/08/23 00:36:31;;;;;;;12.48;6.95;;;;;;;16.03;100.00;101706.78;5087490;28;20020;-82
2023/08/23 00:38:58;;;;;;;12.50;6.85;;;;;;;16.05;100.00;101718.56;5083754;28;20024;-80
2023/08/23 00:41:24;;;;;;;14.75;7.40;;;;;;;15.99;100.00;101708.94;5084028;28;20051;-79
2023/08/23 00:43:49;;;;;;;12.43;7.03;;;;;;;15.85;100.00;101712.91;5083207;28;20036;-79
2023/08/23 00:46:15;;;;;;;16.70;7.32;;;;;;;16.01;100.00;101706.91;5080845;28;20376;-79
2023/08/23 00:48:43;;;;;;;12.68;5.90;;;;;;;15.98;100.00;101709.94;5055941;28;20044;-79
2023/08/23 00:51:09;;;;;;;12.63;6.75;;;;;;;15.99;100.00;101707.03;5079029;28;20032;-79
2023/08/23 00:53:36;;;;;;;20.55;6.50;;;;;;;15.95;100.00;101705.59;5071108;28;20102;-79
2023/08/23 00:56:02;;;;;;;9.13;6.38;;;;;;;15.83;100.00;101706.66;5086681;28;20042;-79
2023/08/23 00:58:28;;;;;;;12.15;7.05;;;;;;;15.66;100.00;101696.16;5089409;28;20486;-79
2023/08/23 01:00:54;;;;;;;12.25;6.45;;;;;;;15.68;100.00;101692.28;5087180;28;20028;-79
2023/08/23 01:03:20;;;;;;;10.00;6.13;;;;;;;15.71;100.00;101691.13;5085707;28;20032;-79
2023/08/23 01:06:08;;;;;;;11.73;6.70;;;;;;;15.60;100.00;101689.31;5084744;28;20086;-79
2023/08/23 01:09:06;;;;;;;14.80;6.75;;;;;;;15.49;100.00;101700.41;5082375;28;20032;-79
2023/08/23 01:12:10;;;;;;;11.48;6.45;;;;;;;15.61;100.00;101700.22;5082380;28;20383;-79
2023/08/23 01:14:42;;;;;;;15.32;6.95;;;;;;;15.48;100.00;101694.03;5075869;28;20118;-79
2023/08/23 01:17:09;;;;;;;9.10;6.40;;;;;;;15.44;100.00;101695.28;5087296;28;20501;-79
2023/08/23 01:19:45;;;;;;;10.77;6.00;;;;;;;15.58;100.00;101691.34;5084807;28;20035;-79
2023/08/23 01:22:16;;;;;;;11.25;6.70;;;;;;;15.59;100.00;101693.97;5090918;28;20123;-79
2023/08/23 01:24:41;;;;;;;17.83;7.07;;;;;;;15.64;100.00;101693.53;5079867;28;20027;-79
2023/08/23 01:27:07;;;;;;;16.00;6.40;;;;;;;15.60;100.00;101690.19;5063600;28;20020;-79
2023/08/23 01:29:32;;;;;;;8.80;5.78;;;;;;;15.58;100.00;101686.69;5079714;28;20487;-79
2023/08/23 01:32:10;;;;;;;9.35;6.25;;;;;;;15.63;100.00;101694.56;5087413;28;20122;-79
2023/08/23 01:34:40;;;;;;;10.90;6.68;;;;;;;15.68;100.00;101696.94;5084842;28;20024;-79
2023/08/23 01:37:07;;;;;;;13.75;5.95;;;;;;;15.60;100.00;101695.69;5084660;28;20095;-79
2023/08/23 01:39:33;;;;;;;10.82;6.20;;;;;;;15.50;100.00;101697.50;5081104;28;20074;-79
2023/08/23 01:42:00;;;;;;;14.10;6.15;;;;;;;15.47;100.00;101700.53;5076753;28;20079;-79
2023/08/23 01:44:25;;;;;;;8.68;6.03;;;;;;;15.63;100.00;101700.09;5088933;28;20040;-79
2023/08/23 01:46:51;;;;;;;11.88;6.88;;;;;;;15.32;100.00;101704.63;5070569;28;20044;-80
2023/08/23 01:49:16;;;;;;;7.97;5.78;;;;;;;15.31;100.00;101691.81;5086230;28;20111;-82
2023/08/23 01:51:41;;;;;;;8.80;5.68;;;;;;;15.36;100.00;101692.31;5086347;28;20036;-82
2023/08/23 01:54:07;;;;;;;9.60;5.90;;;;;;;15.31;100.00;101694.59;5080712;28;20032;-82
2023/08/23 01:56:32;;;;;;;13.45;6.47;;;;;;;15.36;100.00;101698.69;5069111;28;20043;-82
2023/08/23 01:58:58;;;;;;;11.50;6.35;;;;;;;15.35;100.00;101691.44;5078673;28;20521;-82
2023/08/23 02:01:23;;;;;;;13.55;6.82;;;;;;;15.29;100.00;101689.19;5068171;28;20422;-81
2023/08/23 02:03:48;;;;;;;16.60;6.80;;;;;;;15.28;100.00;101683.81;5085815;28;20073;-81
2023/08/23 02:06:14;;;;;;;10.70;5.88;;;;;;;15.32;100.00;101677.91;5066221;28;20044;-81
2023/08/23 02:08:39;;;;;;;11.63;6.15;;;;;;;15.31;100.00;101683.56;5086383;28;20028;-81
2023/08/23 02:11:04;;;;;;;11.40;6.57;;;;;;;15.17;100.00;101682.00;5072137;28;20998;-82
2023/08/23 02:13:30;;;;;;;17.23;6.30;;;;;;;15.02;100.00;101686.91;5083189;28;20043;-82
2023/08/23 02:15:55;;;;;;;16.63;6.65;;;;;;;14.96;100.00;101696.59;5083008;28;20073;-81
2023/08/23 02:18:21;;;;;;;11.15;6.65;;;;;;;14.91;100.00;101692.47;5087603;28;20035;-81
2023/08/23 02:20:57;;;;;;;10.30;7.13;;;;;;;14.85;100.00;101680.94;5070803;28;20036;-81
2023/08/23 02:23:22;;;;;;;9.00;6.15;;;;;;;14.70;100.00;101674.81;5084408;28;20020;-82
2023/08/23 02:25:48;;;;;;;13.48;6.20;;;;;;;14.70;100.00;101677.59;5078382;28;20028;-82
2023/08/23 02:28:13;;;;;;;12.20;6.47;;;;;;;14.93;100.00;101674.78;5069136;28;20028;-81
2023/08/23 02:30:39;;;;;;;10.95;6.97;;;;;;;14.91;100.00;101670.41;5068362;28;20029;-82
2023/08/23 02:33:04;;;;;;;15.98;7.07;;;;;;;14.99;100.00;101679.78;5059395;28;20744;-81
2023/08/23 02:35:30;;;;;;;15.50;6.70;;;;;;;15.01;100.00;101675.00;5085726;28;20044;-82
2023/08/23 02:37:57;;;;;;;11.65;6.60;;;;;;;15.10;100.00;101680.75;5081988;28;20123;-82
2023/08/23 02:40:23;;;;;;;13.27;6.07;;;;;;;14.99;100.00;101673.41;5085756;28;20547;-81
2023/08/23 02:42:48;;;;;;;12.75;7.13;;;;;;;14.92;100.00;101681.31;5067481;28;20131;-82
2023/08/23 02:45:14;;;;;;;10.50;6.90;;;;;;;14.87;100.00;101678.94;5097644;28;20035;-81
2023/08/23 02:47:40;;;;;;;16.33;7.47;;;;;;;14.82;100.00;101678.47;5069061;28;20390;-81
2023/08/23 02:50:05;;;;;;;11.45;7.43;;;;;;;14.81;100.00;101684.09;5075501;28;20081;-82
2023/08/23 02:52:31;;;;;;;14.35;7.65;;;;;;;14.67;100.00;101683.34;5050079;28;20115;-82
2023/08/23 02:54:56;;;;;;;13.77;7.22;;;;;;;14.67;100.00;101688.88;5088801;28;20035;-81
2023/08/23 02:57:22;;;;;;;14.93;7.07;;;;;;;14.72;100.00;101688.47;5065617;28;20025;-82
2023/08/23 02:59:49;;;;;;;13.50;7.78;;;;;;;14.70;100.00;101685.00;5070838;28;20082;-82
2023/08/23 03:02:14;;;;;;;17.13;7.57;;;;;;;14.63;100.00;101687.38;5085345;28;20111;-82
2023/08/23 03:04:39;;;;;;;12.68;7.10;;;;;;;14.69;100.00;101677.72;5053499;28;20080;-81
2023/08/23 03:07:05;;;;;;;22.08;7.57;;;;;;;14.79;100.00;101681.47;5085853;28;20038;-81
2023/08/23 03:09:30;;;;;;;13.10;7.85;;;;;;;14.77;100.00;101680.69;5065785;28;20028;-81
2023/08/23 03:11:55;;;;;;;19.48;7.80;;;;;;;14.66;100.00;101675.25;5077404;28;20044;-82
2023/08/23 03:14:21;;;;;;;13.02;8.07;;;;;;;14.59;100.00;101666.56;5068443;28;20039;-81
2023/08/23 03:16:46;;;;;;;13.85;7.45;;;;;;;14.56;100.00;101665.94;5067590;28;20070;-82
2023/08/23 03:19:12;;;;;;;21.30;8.63;;;;;;;14.48;100.00;101666.59;5069295;28;20103;-81
2023/08/23 03:21:37;;;;;;;16.95;7.90;;;;;;;14.57;100.00;101665.81;5082839;28;20033;-81
2023/08/23 03:24:03;;;;;;;18.63;8.05;;;;;;;14.72;100.00;101660.06;5083555;28;20486;-81
2023/08/23 03:26:28;;;;;;;15.02;7.90;;;;;;;14.59;100.00;101658.31;5079439;28;20059;-81
2023/08/23 03:28:53;;;;;;;13.43;8.32;;;;;;;14.63;100.00;101654.31;5065146;28;20027;-82
2023/08/23 03:31:19;;;;;;;16.88;7.47;;;;;;;14.67;100.00;101655.78;5065025;28;20107;-82
2023/08/23 03:33:44;;;;;;;15.48;7.60;;;;;;;14.77;100.00;101661.41;5085285;28;20319;-82
2023/08/23 03:36:09;;;;;;;22.85;8.98;;;;;;;14.81;100.00;101659.28;5082767;28;20052;-82
2023/08/23 03:38:35;;;;;;;16.25;8.48;;;;;;;14.85;100.00;101664.38;5080533;28;20039;-82
2023/08/23 03:41:00;;;;;;;24.00;8.88;;;;;;;14.85;100.00;101663.53;5070080;28;20048;-82
2023/08/23 03:43:25;;;;;;;16.70;8.07;;;;;;;14.69;100.00;101662.06;5087962;28;20052;-82
2023/08/23 03:45:51;;;;;;;15.15;7.25;;;;;;;14.85;100.00;101664.38;5068933;28;20056;-82
2023/08/23 03:48:17;;;;;;;14.25;7.20;;;;;;;14.66;100.00;101659.56;5056362;28;20039;-82
2023/08/23 03:50:43;;;;;;;14.48;7.97;;;;;;;14.63;100.00;101662.56;5087223;28;20024;-81
2023/08/23 03:53:08;;;;;;;16.80;7.57;;;;;;;14.57;100.00;101656.66;5086492;28;20040;-82
2023/08/23 03:55:36;;;;;;;15.30;8.10;;;;;;;14.40;100.00;101672.72;5089589;28;20032;-82
2023/08/23 03:58:03;;;;;;;18.27;8.25;;;;;;;14.61;100.00;101660.94;5083373;28;20028;-82
2023/08/23 04:00:28;;;;;;;14.00;7.28;;;;;;;14.53;100.00;101658.81;5084294;28;20043;-82
2023/08/23 04:02:54;;;;;;;16.65;7.55;;;;;;;14.60;100.00;101667.47;5090431;28;20035;-82
2023/08/23 04:05:19;;;;;;;14.07;6.80;;;;;;;14.54;100.00;101663.28;5083936;28;20410;-82
2023/08/23 04:07:45;;;;;;;16.00;7.47;;;;;;;14.58;100.00;101669.47;5076102;28;20051;-82
2023/08/23 04:10:11;;;;;;;10.55;6.90;;;;;;;14.66;100.00;101664.22;5053545;28;20032;-80
2023/08/23 04:12:37;;;;;;;11.80;7.32;;;;;;;14.42;100.00;101667.09;5091906;28;20035;-80
2023/08/23 04:15:03;;;;;;;11.80;6.97;;;;;;;14.42;100.00;101667.94;5060460;28;20102;-80
2023/08/23 04:17:28;;;;;;;13.18;7.80;;;;;;;14.46;100.00;101676.84;5083857;28;20055;-80
2023/08/23 04:19:54;;;;;;;12.15;7.45;;;;;;;14.28;100.00;101677.38;5069966;28;20024;-80
2023/08/23 04:22:19;;;;;;;11.55;7.03;;;;;;;14.27;100.00;101683.00;5083307;28;20041;-79
2023/08/23 04:24:45;;;;;;;11.95;5.60;;;;;;;14.34;100.00;101668.56;5058522;28;20035;-79
2023/08/23 04:27:10;;;;;;;14.57;5.90;;;;;;;14.22;100.00;101672.34;5073878;28;20167;-80
2023/08/23 04:29:35;;;;;;;12.90;6.15;;;;;;;14.20;100.00;101674.34;5070954;28;20036;-81
2023/08/23 04:32:01;;;;;;;15.23;6.47;;;;;;;14.17;100.00;101669.09;5070825;28;20033;-81
2023/08/23 04:34:26;;;;;;;11.25;6.53;;;;;;;14.25;100.00;101679.47;5066193;28;20512;-80
2023/08/23 04:36:52;;;;;;;11.88;6.13;;;;;;;14.34;100.00;101678.72;5082067;28;20034;-81
2023/08/23 04:39:17;;;;;;;14.10;7.40;;;;;;;14.20;100.00;101677.13;5085533;28;20036;-81
2023/08/23 04:41:42;;;;;;;16.17;5.97;;;;;;;14.23;100.00;101675.97;5064725;28;20052;-80
2023/08/23 04:44:08;;;;;;;10.48;6.88;;;;;;;14.31;100.00;101678.97;5085323;28;20043;-80
2023/08/23 04:46:34;;;;;;;12.88;7.57;;;;;;;14.22;100.00;101674.25;5064378;28;20042;-80
2023/08/23 04:48:59;;;;;;;10.82;7.45;;;;;;;14.20;100.00;101676.22;5075095;28;20460;-80
2023/08/23 04:51:24;;;;;;;10.80;7.22;;;;;;;14.18;100.00;101675.47;5049158;28;20038;-80
2023/08/23 04:53:50;;;;;;;21.17;9.45;;;;;;;14.28;100.00;101676.47;5091005;28;20032;-80
2023/08/23 04:56:16;;;;;;;15.25;7.50;;;;;;;14.40;100.00;101674.59;5053555;28;20028;-79
2023/08/23 04:58:41;;;;;;;17.08;8.32;;;;;;;14.48;100.00;101675.72;5085668;28;20123;-79
2023/08/23 05:01:07;;;;;;;18.60;8.32;;;;;;;14.49;100.00;101680.25;5085201;28;20031;-79
2023/08/23 05:03:34;;;;;;;15.95;8.25;;;;;;;14.52;100.00;101673.56;5072695;28;20478;-79
2023/08/23 05:06:01;;;;;;;17.52;7.72;;;;;;;14.36;100.00;101670.34;5054697;28;20032;-80
2023/08/23 05:08:28;;;;;;;18.77;7.95;;;;;;;14.47;100.00;101670.34;5085790;28;20077;-80
2023/08/23 05:10:54;;;;;;;15.73;8.10;;;;;;;14.63;100.00;101681.00;5069937;28;20036;-80
2023/08/23 05:13:20;;;;;;;13.93;7.90;;;;;;;14.62;100.00;101669.06;5088682;28;20040;-80
2023/08/23 05:15:56;;;;;;;14.60;8.32;;;;;;;14.76;100.00;101670.69;5082965;28;20062;-80
2023/08/23 05:18:23;;;;;;;12.82;8.50;;;;;;;14.63;100.00;101668.09;5067357;28;20039;-79
2023/08/23 05:20:59;;;;;;;13.07;7.72;;;;;;;14.50;100.00;101670.94;5082200;28;20466;-81
2023/08/23 05:23:25;;;;;;;15.48;7.80;;;;;;;14.55;100.00;101670.56;5079062;28;20043;-81
2023/08/23 05:25:53;;;;;;;22.33;8.55;;;;;;;14.80;100.00;101669.41;5079396;28;20022;-81
2023/08/23 05:28:20;;;;;;;14.95;8.45;;;;;;;14.85;100.00;101658.88;5078427;28;20067;-81
2023/08/23 05:30:45;;;;;;;15.88;10.15;;;;;;;14.91;100.00;101665.78;5080836;28;20032;-81
2023/08/23 05:33:12;;;;;;;16.73;8.95;;;;;;;15.05;100.00;101657.22;5082265;28;20081;-81
2023/08/23 05:35:39;;;;;;;15.63;9.18;;;;;;;15.13;100.00;101659.28;5077155;28;20476;-81
2023/08/23 05:38:05;;;;;;;13.20;8.85;;;;;;;15.35;100.00;101652.81;5069811;28;20097;-81
2023/08/23 05:40:30;;;;;;;13.45;7.85;;;;;;;15.66;100.00;101657.50;5051800;28;20032;-81
2023/08/23 05:42:55;;;;;;;16.83;7.18;;;;;;;15.64;100.00;101652.13;5065399;28;20131;-81
2023/08/23 05:45:22;;;;;;;17.20;7.90;;;;;;;15.66;100.00;101652.91;5087198;28;20036;-81
2023/08/23 05:47:47;;;;;;;13.73;7.65;;;;;;;15.70;100.00;101653.50;5069955;28;20115;-82
2023/08/23 05:50:13;;;;;;;17.17;8.23;;;;;;;15.75;100.00;101654.81;5082169;28;20111;-81
2023/08/23 05:52:38;;;;;;;19.15;9.98;;;;;;;15.75;100.00;101663.09;5062725;28;20036;-81
2023/08/23 05:55:07;;;;;;;11.55;8.23;;;;;;;16.31;100.00;101669.25;5083086;28;20050;-81
2023/08/23 05:57:32;;;;;;;17.45;9.63;;;;;;;16.17;100.00;101676.03;5064818;28;20021;-82
2023/08/23 05:59:58;;;;;;;19.92;9.82;;;;;;;16.23;100.00;101669.06;5085671;28;20031;-81
2023/08/23 06:02:23;;;;;;;19.92;10.30;;;;;;;16.34;100.00;101682.78;5081841;28;20836;-81
2023/08/23 06:04:49;;;;;;;12.40;9.55;;;;;;;16.51;100.00;101675.72;5084692;28;20420;-82
2023/08/23 06:07:15;;;;;;;13.68;9.70;;;;;;;16.65;100.00;101678.09;5070821;28;20072;-82
2023/08/23 06:09:42;;;;;;;21.85;11.70;;;;;;;16.65;100.00;101680.88;5070491;28;20680;-81
2023/08/23 06:12:08;;;;;;;18.10;10.35;;;;;;;16.70;100.00;101684.09;5084267;28;20063;-81
2023/08/23 06:14:34;;;;;;;19.95;12.45;;;;;;;16.57;100.00;101683.47;5070997;28;20068;-81
2023/08/23 06:17:00;;;;;;;19.85;13.80;;;;;;;16.59;100.00;101684.19;5087492;28;20032;-82
2023/08/23 06:19:25;;;;;;;25.13;13.15;;;;;;;16.83;100.00;101688.50;5069801;28;20055;-81
2023/08/23 06:21:50;;;;;;;17.10;13.93;;;;;;;17.15;100.00;101698.47;5088673;28;20028;-82
2023/08/23 06:24:16;;;;;;;24.33;13.73;;;;;;;17.62;100.00;101695.88;5070163;28;20093;-82
2023/08/23 06:26:43;;;;;;;19.15;12.52;;;;;;;17.86;100.00;101692.63;5081718;28;20078;-81
2023/08/23 06:29:09;;;;;;;22.20;13.07;;;;;;;18.03;100.00;101702.09;5085827;28;20153;-82
2023/08/23 06:31:34;;;;;;;16.33;11.98;;;;;;;18.10;100.00;101689.41;5082492;28;20059;-81
2023/08/23 06:34:00;;;;;;;22.08;13.02;;;;;;;18.38;100.00;101694.97;5085942;28;20021;-80
2023/08/23 06:36:26;;;;;;;16.90;11.35;;;;;;;18.66;100.00;101703.31;5086938;28;20031;-81
2023/08/23 06:38:51;;;;;;;15.50;11.07;;;;;;;18.76;100.00;101703.25;5084299;28;20032;-82
2023/08/23 06:41:17;;;;;;;18.92;10.18;;;;;;;18.74;100.00;101706.19;5083179;28;20032;-82
2023/08/23 06:43:43;;;;;;;18.70;10.18;;;;;;;18.97;100.00;101701.16;5082464;28;20020;-81
2023/08/23 06:46:08;;;;;;;17.35;10.15;;;;;;;19.03;100.00;101694.94;5070811;28;20036;-81
2023/08/23 06:48:35;;;;;;;22.60;10.07;;;;;;;19.67;100.00;101691.25;5085144;28;20056;-80
2023/08/23 06:51:04;;;;;;;17.27;9.93;;;;;;;19.91;100.00;101690.59;5081416;28;20039;-82
2023/08/23 06:53:31;;;;;;;18.50;9.82;;;;;;;20.02;100.00;101687.53;5081275;28;20040;-82
2023/08/23 06:55:57;;;;;;;14.80;9.80;;;;;;;20.22;100.00;101690.09;5089982;28;20024;-82
2023/08/23 06:58:22;;;;;;;18.55;9.25;;;;;;;20.36;100.00;101690.34;5085977;28;20512;-81
2023/08/23 07:00:47;;;;;;;17.23;8.95;;;;;;;20.20;100.00;101691.16;5090114;28;20055;-82
2023/08/23 07:03:13;;;;;;;13.05;9.27;;;;;;;20.37;100.00;101689.31;5076000;28;20031;-79
2023/08/23 07:05:38;;;;;;;13.88;8.57;;;;;;;20.91;100.00;101688.19;5048035;28;20028;-80
2023/08/23 07:08:04;;;;;;;16.50;8.43;;;;;;;21.28;100.00;101693.34;5086388;28;20038;-79
2023/08/23 07:10:30;;;;;;;11.25;7.32;;;;;;;21.50;100.00;101699.31;5085961;28;20423;-81
2023/08/23 07:12:56;;;;;;;13.65;7.43;;;;;;;22.12;100.00;101703.47;5086247;28;20119;-81
2023/08/23 07:15:22;;;;;;;10.75;7.32;;;;;;;21.66;100.00;101709.59;5076689;28;20135;-81
2023/08/23 07:17:48;;;;;;;10.52;6.40;;;;;;;21.98;100.00;101707.84;5088067;28;20020;-81
2023/08/23 07:20:15;;;;;;;14.75;8.02;;;;;;;21.84;100.00;101715.88;5078483;28;20509;-81
2023/08/23 07:22:40;;;;;;;12.48;7.25;;;;;;;21.73;100.00;101724.59;5087714;28;20406;-79
2023/08/23 07:25:06;;;;;;;20.10;7.93;;;;;;;22.14;100.00;101718.97;5087707;28;20020;-79
2023/08/23 07:27:32;;;;;;;15.63;8.27;;;;;;;21.99;100.00;101723.53;5075811;28;20036;-79
2023/08/23 07:29:58;;;;;;;11.60;7.25;;;;;;;22.25;100.00;101717.75;5071513;28;20035;-79
2023/08/23 07:32:24;;;;;;;11.07;7.40;;;;;;;22.38;100.00;101728.38;5084880;28;20078;-79
2023/08/23 07:34:50;;;;;;;14.02;6.47;;;;;;;22.72;100.00;101721.66;5067306;28;20027;-79
2023/08/23 07:37:17;;;;;;;11.63;6.85;;;;;;;22.67;100.00;101724.13;5070172;28;20036;-79
2023/08/23 07:39:43;;;;;;;10.80;6.40;;;;;;;23.22;100.00;101725.97;5078058;28;20032;-78
2023/08/23 07:42:08;;;;;;;14.13;6.85;;;;;;;23.11;100.00;101727.25;5079116;28;20423;-79
2023/08/23 07:44:34;;;;;;;11.82;6.95;;;;;;;22.99;100.00;101728.69;5088063;28;20047;-79
2023/08/23 07:47:00;;;;;;;10.93;6.60;;;;;;;22.86;100.00;101728.41;5081276;28;20395;-79
2023/08/23 07:49:26;;;;;;;12.00;6.40;;;;;;;23.66;100.00;101736.50;5087237;28;20502;-79
2023/08/23 07:51:52;;;;;;;7.53;5.80;;;;;;;23.85;100.00;101732.34;5049913;28;20036;-78
2023/08/23 07:54:18;;;;;;;10.55;5.82;;;;;;;23.33;100.00;101729.41;5068037;28;20084;-79
2023/08/23 07:56:43;;;;;;;9.15;6.05;;;;;;;24.20;100.00;101734.66;5068082;28;20020;-79
2023/08/23 07:59:08;;;;;;;13.80;6.03;;;;;;;23.89;100.00;101740.38;5067074;28;20031;-79
2023/08/23 08:01:34;;;;;;;11.98;6.10;;;;;;;24.27;100.00;101738.44;5084486;28;20470;-79
2023/08/23 08:03:59;;;;;;;12.13;6.03;;;;;;;24.51;100.00;101737.28;5079589;28;20044;-79
2023/08/23 08:06:25;;;;;;;10.15;6.72;;;;;;;24.25;100.00;101736.88;5080988;28;20118;-79
2023/08/23 08:08:50;;;;;;;8.30;5.25;;;;;;;24.21;100.00;101742.00;5079033;28;20024;-79
2023/08/23 08:11:16;;;;;;;7.47;5.25;;;;;;;24.46;100.00;101744.53;5060562;28;20055;-79
2023/08/23 08:13:41;;;;;;;11.80;5.53;;;;;;;24.26;100.00;101747.03;5081939;28;20043;-79
2023/08/23 08:16:12;;;;;;;10.18;5.80;;;;;;;24.03;100.00;101740.41;5077773;28;20020;-79
2023/08/23 08:18:37;;;;;;;10.50;5.95;;;;;;;24.29;100.00;101746.66;5086696;28;20034;-79
2023/08/23 08:21:03;;;;;;;8.27;4.70;;;;;;;24.69;98.31;101738.88;5081798;28;20027;-79
2023/08/23 08:23:29;;;;;;;10.80;4.95;;;;;;;24.68;100.00;101739.97;5079073;28;20119;-79
2023/08/23 08:25:55;;;;;;;11.55;5.00;;;;;;;24.76;96.69;101732.31;5077875;28;20044;-79
2023/08/23 08:28:20;;;;;;;10.07;4.78;;;;;;;25.21;94.70;101743.47;5079656;28;20023;-79
2023/08/23 08:30:46;;;;;;;5.15;4.05;;;;;;;25.65;90.60;101736.00;5077414;28;20037;-79
2023/08/23 08:33:12;;;;;;;5.47;3.58;;;;;;;25.51;88.40;101746.19;5086478;28;20513;-79
2023/08/23 08:35:37;;;;;;;8.43;3.28;;;;;;;24.82;87.86;101750.28;5069695;28;20024;-78
2023/08/23 08:38:02;;;;;;;10.70;5.53;;;;;;;25.29;89.89;101750.94;5067583;28;20028;-79
2023/08/23 08:40:28;;;;;;;7.28;3.90;;;;;;;25.61;90.78;101748.69;5068074;28;20512;-79
2023/08/23 08:42:55;;;;;;;9.27;4.40;;;;;;;25.41;91.44;101745.66;5081196;28;20052;-79
2023/08/23 08:45:21;;;;;;;12.52;5.15;;;;;;;25.20;95.39;101741.72;5082536;28;20029;-79
2023/08/23 08:47:47;;;;;;;13.00;6.00;;;;;;;25.55;92.51;101747.56;5087426;28;20042;-79
2023/08/23 08:50:13;;;;;;;11.88;6.00;;;;;;;25.20;95.14;101732.44;5083933;28;20487;-79
2023/08/23 08:52:49;;;;;;;11.05;6.07;;;;;;;25.76;93.00;101748.63;5081606;28;20025;-79
2023/08/23 08:55:16;;;;;;;12.32;5.68;;;;;;;26.06;88.37;101738.16;5081685;28;20136;-78
2023/08/23 08:57:43;;;;;;;10.35;5.40;;;;;;;25.99;93.36;101734.41;5079080;28;20059;-79
2023/08/23 09:00:09;;;;;;;12.00;5.57;;;;;;;25.94;91.83;101737.81;5087132;28;20572;-79
2023/08/23 09:02:37;;;;;;;9.55;5.55;;;;;;;26.26;91.92;101727.06;5080997;28;20118;-80
2023/08/23 09:05:05;;;;;;;11.68;5.82;;;;;;;26.39;88.38;101726.31;5086389;28;20505;-80
2023/08/23 09:07:31;;;;;;;15.02;6.00;;;;;;;26.13;88.07;101725.03;5082808;28;20360;-80
2023/08/23 09:09:57;;;;;;;10.32;5.60;;;;;;;26.35;87.51;101723.06;5081866;28;20031;-81
2023/08/23 09:12:23;;;;;;;11.73;5.38;;;;;;;26.26;88.32;101720.59;5083660;28;20043;-80
2023/08/23 09:14:49;;;;;;;10.70;5.15;;;;;;;26.05;87.54;101733.59;5068964;28;20032;-80
2023/08/23 09:17:15;;;;;;;11.82;5.35;;;;;;;26.56;85.84;101729.66;5087666;28;20031;-80
2023/08/23 09:19:41;;;;;;;11.02;5.65;;;;;;;26.91;84.64;101730.53;5090075;28;20410;-80
2023/08/23 09:22:06;;;;;;;10.27;4.72;;;;;;;27.22;82.75;101722.66;5086251;28;20036;-80
2023/08/23 09:24:33;;;;;;;6.97;5.03;;;;;;;27.04;80.32;101720.41;5090222;28;20043;-80
2023/08/23 09:26:59;;;;;;;10.27;5.72;;;;;;;26.76;81.92;101721.38;5083096;28;20020;-80
2023/08/23 09:29:24;;;;;;;10.57;5.97;;;;;;;26.77;80.97;101723.09;5086205;28;20028;-80
2023/08/23 09:31:50;;;;;;;13.30;6.22;;;;;;;26.60;82.90;101720.59;5084426;28;20032;-80
2023/08/23 09:34:16;;;;;;;8.57;5.38;;;;;;;26.86;80.62;101721.88;5087051;28;20127;-80
2023/08/23 09:36:42;;;;;;;7.97;4.97;;;;;;;26.34;86.09;101709.22;5085025;28;20039;-80
2023/08/23 09:39:11;;;;;;;10.82;6.65;;;;;;;26.18;84.80;101716.84;5088314;28;20023;-80
2023/08/23 09:41:39;;;;;;;13.80;6.00;;;;;;;26.39;81.88;101727.16;5081528;28;20024;-80
2023/08/23 09:44:04;;;;;;;15.48;6.03;;;;;;;26.88;84.39;101718.84;5096708;28;20020;-80
2023/08/23 09:46:33;;;;;;;17.25;6.75;;;;;;;26.85;82.10;101720.13;5064565;28;20379;-80
2023/08/23 09:49:02;;;;;;;13.48;6.32;;;;;;;26.82;82.82;101723.34;5083552;28;20020;-80
2023/08/23 09:51:29;;;;;;;13.93;7.95;;;;;;;26.89;81.99;101723.38;5086042;28;20068;-80
2023/08/23 09:53:58;;;;;;;9.77;5.88;;;;;;;27.44;80.84;101740.28;5084903;28;20120;-80
2023/08/23 09:56:24;;;;;;;10.68;5.95;;;;;;;26.87;82.71;101733.97;5086752;28;20012;-80
2023/08/23 09:58:50;;;;;;;13.50;6.60;;;;;;;26.75;85.63;101733.69;5083560;28;20063;-83
2023/08/23 10:01:16;;;;;;;11.40;5.30;;;;;;;27.26;83.28;101736.09;5084858;28;20059;-80
2023/08/23 10:03:42;;;;;;;8.68;4.47;;;;;;;27.57;80.09;101731.88;5085072;28;20038;-80
2023/08/23 10:06:08;;;;;;;9.10;4.28;;;;;;;27.69;77.58;101729.28;5077805;28;20536;-80
2023/08/23 10:08:35;;;;;;;12.88;4.72;;;;;;;27.32;75.68;101731.59;5088865;28;20052;-82
2023/08/23 10:11:01;;;;;;;9.88;4.38;;;;;;;26.86;81.62;101716.25;5090363;28;20043;-81
2023/08/23 10:13:29;;;;;;;10.90;4.38;;;;;;;27.53;77.85;101722.13;5080962;28;20552;-82
2023/08/23 10:15:56;;;;;;;16.45;6.72;;;;;;;26.25;78.62;101714.09;5089820;28;20051;-82
2023/08/23 10:18:23;;;;;;;9.85;5.03;;;;;;;27.03;80.10;101715.88;5085584;28;20032;-80
2023/08/23 10:20:51;;;;;;;8.63;4.70;;;;;;;26.95;80.40;101716.94;5085282;28;20043;-81
2023/08/23 10:23:18;;;;;;;12.43;4.90;;;;;;;27.07;82.65;101709.66;5085472;28;20078;-81
2023/08/23 10:25:46;;;;;;;10.82;5.22;;;;;;;27.01;79.19;101720.88;5083363;28;20368;-81
2023/08/23 10:28:18;;;;;;;12.30;4.40;;;;;;;27.22;78.89;101717.03;5077160;28;20036;-81
2023/08/23 10:30:46;;;;;;;8.50;4.22;;;;;;;26.92;79.18;101722.97;5074714;28;20028;-81
2023/08/23 10:33:14;;;;;;;8.57;4.20;;;;;;;27.01;81.05;101712.44;5081755;28;20077;-81
2023/08/23 10:35:42;;;;;;;8.15;4.05;;;;;;;27.59;79.77;101706.34;5082804;28;20028;-81
2023/08/23 10:38:08;;;;;;;9.18;4.18;;;;;;;27.27;77.33;101712.50;5080584;28;20660;-81
2023/08/23 10:40:36;;;;;;;11.40;4.40;;;;;;;27.16;75.87;101717.91;5078374;28;20056;-81
2023/08/23 10:43:16;;;;;;;8.18;3.92;;;;;;;27.53;75.95;101713.66;5068046;28;20052;-81
2023/08/23 10:46:02;;;;;;;8.80;3.70;;;;;;;27.48;76.84;101716.25;5082902;28;20093;-81
2023/08/23 10:48:28;;;;;;;6.15;2.95;;;;;;;27.76;73.58;101718.94;5084225;28;20028;-80
2023/08/23 10:50:54;;;;;;;6.22;2.72;;;;;;;28.09;72.33;101717.22;5081910;28;20032;-80
2023/08/23 10:53:21;;;;;;;5.78;2.35;;;;;;;28.34;70.62;101714.63;5078931;28;20052;-81
2023/08/23 10:55:48;;;;;;;8.00;2.88;;;;;;;27.83;71.15;101707.69;5064112;28;20039;-81
2023/08/23 10:58:14;;;;;;;10.95;3.47;;;;;;;27.56;72.06;101693.56;5086143;28;20026;-81
2023/08/23 11:00:42;;;;;;;7.72;3.05;;;;;;;27.18;73.81;101696.03;5088323;28;20027;-81
2023/08/23 11:03:12;;;;;;;11.73;3.22;;;;;;;27.37;75.00;101700.00;5084682;28;20027;-81
2023/08/23 11:05:38;;;;;;;13.88;3.10;;;;;;;28.08;73.50;101701.44;5086902;28;20028;-81
2023/08/23 11:08:04;;;;;;;8.90;3.63;;;;;;;27.04;74.67;101690.38;5065235;28;20025;-81